Tunbridge, Illinois
Current Conditions -  °F | °C
As of 12:35 PM on Wednesday 26 Nov 2014 (Local Time) from KAAA Reporting Station
Overcast Overcast  
Wind Chill: 23°   Ceiling: 900
Heat Index: 32°   Visibility: 7mi
Dew Point: 28°   Wind: 12mph
Humidity: 86%   Direction: 100°E
Pressure: 30.06"   Gusts: 17mph
Location:  40.0933°N, 89.087°W
Report Text: KAAA 261835Z AUTO 10010G15KT 080V140 7SM OVC009 00/M02 A3006 RMK AO2 T00001021
Loading
Personal Weather Stations






























Interactive Weather Map New forecast layout! Learn more

10-Day Weather Forecast

Advertisements
Track Severe Weather on mobile